createdAt,value
2022-11-27T00:01:35.468Z,4.20
2022-11-27T00:04:03.001Z,4.00
2022-11-27T00:06:31.387Z,4.10
2022-11-27T00:09:00.724Z,4.10
2022-11-27T00:11:29.871Z,4.10
2022-11-27T00:13:57.505Z,4.10
2022-11-27T00:16:26.423Z,4.10
2022-11-27T00:18:54.070Z,4.10
2022-11-27T00:21:29.969Z,4.20
2022-11-27T00:23:58.931Z,4.20
2022-11-27T00:26:27.490Z,4.30
2022-11-27T00:28:55.655Z,4.30
2022-11-27T00:31:30.117Z,4.20
2022-11-27T00:33:59.984Z,4.20
2022-11-27T00:36:28.930Z,4.10
2022-11-27T00:38:56.373Z,4.20
2022-11-27T00:41:26.315Z,4.10
2022-11-27T00:43:54.326Z,4.10
2022-11-27T00:46:29.109Z,4.20
2022-11-27T00:48:58.196Z,4.20
2022-11-27T00:51:26.556Z,4.10
2022-11-27T00:53:54.776Z,4.10
2022-11-27T00:56:28.836Z,4.20
2022-11-27T00:58:56.942Z,4.20
2022-11-27T01:01:36.484Z,4.30
2022-11-27T01:04:05.941Z,4.10
2022-11-27T01:06:33.602Z,4.10
2022-11-27T01:09:01.292Z,4.20
2022-11-27T01:11:31.188Z,4.10
2022-11-27T01:14:01.201Z,4.00
2022-11-27T01:16:30.308Z,4.20
2022-11-27T01:19:02.085Z,4.30
2022-11-27T01:21:32.296Z,4.30
2022-11-27T01:24:00.990Z,4.30
2022-11-27T01:26:28.356Z,4.20
2022-11-27T01:28:57.368Z,4.30
2022-11-27T01:31:30.216Z,4.30
2022-11-27T01:34:00.398Z,4.30
2022-11-27T01:36:28.379Z,4.30
2022-11-27T01:38:56.106Z,4.40
2022-11-27T01:41:28.861Z,4.30
2022-11-27T01:44:24.196Z,4.30
2022-11-27T01:47:02.750Z,4.40
2022-11-27T01:49:34.252Z,4.40
2022-11-27T01:52:18.782Z,4.30
2022-11-27T01:54:53.225Z,4.20
2022-11-27T01:57:45.245Z,4.20
2022-11-27T02:00:14.810Z,4.20
2022-11-27T02:02:43.757Z,4.10
2022-11-27T02:05:15.611Z,4.20
2022-11-27T02:07:43.345Z,4.10
2022-11-27T02:10:11.239Z,4.10
2022-11-27T02:12:41.507Z,4.20
2022-11-27T02:15:19.641Z,4.20
2022-11-27T02:18:17.395Z,4.10
2022-11-27T02:21:02.328Z,4.00
2022-11-27T02:24:04.598Z,4.10
2022-11-27T02:26:34.620Z,4.00
2022-11-27T02:29:03.685Z,4.00
2022-11-27T02:31:56.953Z,3.90
2022-11-27T02:34:45.477Z,3.90
2022-11-27T02:37:22.568Z,4.00
2022-11-27T02:40:18.434Z,4.00
2022-11-27T02:42:59.820Z,4.00
2022-11-27T02:45:51.191Z,3.90
2022-11-27T02:48:25.982Z,4.00
2022-11-27T02:50:54.020Z,3.90
2022-11-27T02:53:26.048Z,4.00
2022-11-27T02:55:54.657Z,4.20
2022-11-27T02:58:26.094Z,4.30
2022-11-27T03:00:54.937Z,4.40
2022-11-27T03:03:27.731Z,4.30
2022-11-27T03:06:00.753Z,4.40
2022-11-27T03:08:49.791Z,4.50
2022-11-27T03:11:17.475Z,4.50
2022-11-27T03:13:49.752Z,4.60
2022-11-27T03:16:27.166Z,4.60
2022-11-27T03:19:15.759Z,4.70
2022-11-27T03:21:53.338Z,4.60
2022-11-27T03:24:20.650Z,4.70
2022-11-27T03:26:48.446Z,4.60
2022-11-27T03:29:21.422Z,4.60
2022-11-27T03:31:49.538Z,4.70
2022-11-27T03:34:16.983Z,4.70
2022-11-27T03:36:45.676Z,4.70
2022-11-27T03:39:13.354Z,4.60
2022-11-27T03:41:49.645Z,4.70
2022-11-27T03:44:45.046Z,4.80
2022-11-27T03:47:21.657Z,4.70
2022-11-27T03:50:06.451Z,4.80
2022-11-27T03:53:00.592Z,4.80
2022-11-27T03:55:27.966Z,4.80
2022-11-27T03:58:03.741Z,4.80
2022-11-27T04:00:37.706Z,4.80
2022-11-27T04:03:09.166Z,4.80
2022-11-27T04:05:36.791Z,4.80
2022-11-27T04:08:04.742Z,4.80
2022-11-27T04:10:32.023Z,4.80
2022-11-27T04:12:59.356Z,4.80
2022-11-27T04:15:26.674Z,4.80
2022-11-27T04:17:53.906Z,4.80
2022-11-27T04:20:21.163Z,4.80
2022-11-27T04:22:48.531Z,4.90
2022-11-27T04:25:15.878Z,4.80
2022-11-27T04:27:43.153Z,4.90
2022-11-27T04:30:10.944Z,4.80
2022-11-27T04:32:38.194Z,4.90
2022-11-27T04:35:06.061Z,4.80
2022-11-27T04:37:33.383Z,4.80
2022-11-27T04:40:00.673Z,4.90
2022-11-27T04:42:29.463Z,4.90
2022-11-27T04:44:56.766Z,4.90
2022-11-27T04:47:24.225Z,4.90
2022-11-27T04:49:51.492Z,4.90
2022-11-27T04:52:18.721Z,4.90
2022-11-27T04:54:45.980Z,4.90
2022-11-27T04:57:13.285Z,4.90
2022-11-27T04:59:40.860Z,5.00
2022-11-27T05:02:08.228Z,5.00
2022-11-27T05:04:35.566Z,5.00
2022-11-27T05:07:02.844Z,5.00
2022-11-27T05:09:30.104Z,5.00
2022-11-27T05:11:57.452Z,4.90
2022-11-27T05:14:29.076Z,5.00
2022-11-27T05:16:58.692Z,5.00
2022-11-27T05:19:28.752Z,5.00
2022-11-27T05:21:56.402Z,4.90
2022-11-27T05:24:26.721Z,4.90
2022-11-27T05:26:55.264Z,5.00
2022-11-27T05:29:23.362Z,5.00
2022-11-27T05:31:50.789Z,5.00
2022-11-27T05:34:18.354Z,5.00
2022-11-27T05:36:45.733Z,5.00
2022-11-27T05:39:13.051Z,5.00
2022-11-27T05:41:41.827Z,4.90
2022-11-27T05:44:13.920Z,4.90
2022-11-27T05:46:43.569Z,4.90
2022-11-27T05:49:15.369Z,5.00
2022-11-27T05:51:50.428Z,4.90
2022-11-27T05:54:18.516Z,5.00
2022-11-27T05:56:45.763Z,5.00
2022-11-27T05:59:13.087Z,5.00
2022-11-27T06:01:40.533Z,5.00
2022-11-27T06:04:07.908Z,4.90
2022-11-27T06:06:35.215Z,4.90
2022-11-27T06:09:02.460Z,4.90
2022-11-27T06:11:29.762Z,4.90
2022-11-27T06:13:56.986Z,4.80
2022-11-27T06:16:24.687Z,4.90
2022-11-27T06:18:54.256Z,4.90
2022-11-27T06:21:22.856Z,4.90
2022-11-27T06:23:55.288Z,4.80
2022-11-27T06:26:24.769Z,4.80
2022-11-27T06:28:52.160Z,4.70
2022-11-27T06:31:22.893Z,4.80
2022-11-27T06:33:51.921Z,4.80
2022-11-27T06:36:21.493Z,4.80
2022-11-27T06:38:48.798Z,4.80
2022-11-27T06:41:21.339Z,4.80
2022-11-27T06:43:49.384Z,4.80
2022-11-27T06:46:19.366Z,4.70
2022-11-27T06:48:48.844Z,4.80
2022-11-27T06:51:18.523Z,4.90
2022-11-27T06:53:45.884Z,4.90
2022-11-27T06:56:15.722Z,4.90
2022-11-27T06:58:43.859Z,4.90
2022-11-27T07:01:15.421Z,5.00
2022-11-27T07:03:43.297Z,5.00
2022-11-27T07:06:17.653Z,5.10
2022-11-27T07:08:45.058Z,5.10
2022-11-27T07:11:15.671Z,5.20
2022-11-27T07:13:42.910Z,5.10
2022-11-27T07:16:11.431Z,5.10
2022-11-27T07:18:44.581Z,5.20
2022-11-27T07:21:12.751Z,5.20
2022-11-27T07:23:40.296Z,5.20
2022-11-27T07:26:13.707Z,5.30
2022-11-27T07:28:43.735Z,5.20
2022-11-27T07:31:13.494Z,5.20
2022-11-27T07:33:41.056Z,5.30
2022-11-27T07:36:13.416Z,5.30
2022-11-27T07:38:40.930Z,5.30
2022-11-27T07:41:08.802Z,5.40
2022-11-27T07:43:36.507Z,5.40
2022-11-27T07:46:17.156Z,5.40
2022-11-27T07:48:44.790Z,5.50
2022-11-27T07:51:15.897Z,5.50
2022-11-27T07:53:43.401Z,5.60
2022-11-27T07:56:15.094Z,5.60
2022-11-27T07:58:42.941Z,5.80
2022-11-27T08:01:13.864Z,5.80
2022-11-27T08:03:44.198Z,5.90
2022-11-27T08:06:17.975Z,5.90
2022-11-27T08:08:45.588Z,6.00
2022-11-27T08:11:31.370Z,6.10
2022-11-27T08:14:04.325Z,6.10
2022-11-27T08:16:32.883Z,6.10
2022-11-27T08:19:00.263Z,6.10
2022-11-27T08:21:29.004Z,6.20
2022-11-27T08:23:57.538Z,6.20
2022-11-27T08:26:27.534Z,6.20
2022-11-27T08:28:55.765Z,6.30
2022-11-27T08:31:23.576Z,6.20
2022-11-27T08:33:51.326Z,6.20
2022-11-27T08:36:18.747Z,6.20
2022-11-27T08:38:46.828Z,6.30
2022-11-27T08:41:14.454Z,6.30
2022-11-27T08:43:41.746Z,6.30
2022-11-27T08:46:09.476Z,6.40
2022-11-27T08:48:36.909Z,6.50
2022-11-27T08:51:09.518Z,6.60
2022-11-27T08:53:37.757Z,6.60
2022-11-27T08:56:10.333Z,6.60
2022-11-27T08:58:38.146Z,6.70
2022-11-27T09:01:20.246Z,6.70
2022-11-27T09:03:48.711Z,6.80
2022-11-27T09:06:19.058Z,6.80
2022-11-27T09:08:46.477Z,6.90
2022-11-27T09:11:16.132Z,7.00
2022-11-27T09:13:44.304Z,7.00
2022-11-27T09:16:14.498Z,7.00
2022-11-27T09:18:44.977Z,7.00
2022-11-27T09:21:13.768Z,7.00
2022-11-27T09:23:41.337Z,7.00
2022-11-27T09:26:14.232Z,7.00
2022-11-27T09:28:42.694Z,7.00
2022-11-27T09:31:12.748Z,6.90
2022-11-27T09:33:41.362Z,6.90
2022-11-27T09:36:12.246Z,6.90
2022-11-27T09:38:39.919Z,6.80
2022-11-27T09:41:50.256Z,6.90
2022-11-27T09:44:29.747Z,6.90
2022-11-27T09:47:04.738Z,6.90
2022-11-27T09:49:48.412Z,6.90
2022-11-27T09:52:21.873Z,6.90
2022-11-27T09:55:15.353Z,6.90
2022-11-27T09:57:46.285Z,6.90
2022-11-27T10:00:16.846Z,7.00
2022-11-27T10:02:45.101Z,7.00
2022-11-27T10:05:20.339Z,7.00
2022-11-27T10:08:12.544Z,7.10
2022-11-27T10:10:55.878Z,7.20
2022-11-27T10:13:39.046Z,7.30
2022-11-27T10:16:44.099Z,7.30
2022-11-27T10:19:49.135Z,7.50
2022-11-27T10:22:45.779Z,7.60
2022-11-27T10:25:38.758Z,7.50
2022-11-27T10:28:33.576Z,7.40
2022-11-27T10:31:10.407Z,7.40
2022-11-27T10:33:41.687Z,7.40
2022-11-27T10:36:15.036Z,7.40
2022-11-27T10:38:43.660Z,7.40
2022-11-27T10:41:48.897Z,7.50
2022-11-27T10:44:22.909Z,7.50
2022-11-27T10:46:53.368Z,7.60
2022-11-27T10:49:20.770Z,7.80
2022-11-27T10:51:48.056Z,7.80
2022-11-27T10:54:28.061Z,7.80
2022-11-27T10:57:07.267Z,7.90
2022-11-27T10:59:48.458Z,7.90
2022-11-27T11:02:33.764Z,8.00
2022-11-27T11:05:37.749Z,8.00
2022-11-27T11:08:19.908Z,8.00
2022-11-27T11:10:52.713Z,8.00
2022-11-27T11:13:23.087Z,8.20
2022-11-27T11:16:00.547Z,8.20
2022-11-27T11:18:33.628Z,8.30
2022-11-27T11:21:03.980Z,8.20
2022-11-27T11:23:34.820Z,8.20
2022-11-27T11:26:21.300Z,8.40
2022-11-27T11:28:56.530Z,8.40
2022-11-27T11:31:34.816Z,8.50
2022-11-27T11:34:07.651Z,8.60
2022-11-27T11:36:36.017Z,8.70
2022-11-27T11:39:03.349Z,8.60
2022-11-27T11:41:38.152Z,8.70
2022-11-27T11:44:05.603Z,8.90
2022-11-27T11:46:36.368Z,9.00
2022-11-27T11:49:23.833Z,9.00
2022-11-27T11:52:11.741Z,9.00
2022-11-27T11:54:58.152Z,9.10
2022-11-27T11:57:40.475Z,9.20
2022-11-27T12:00:11.043Z,9.10
2022-11-27T12:03:22.874Z,9.00
2022-11-27T12:05:59.191Z,9.10
2022-11-27T12:08:54.355Z,9.10
2022-11-27T12:11:43.496Z,9.10
2022-11-27T12:14:35.754Z,9.30
2022-11-27T12:17:32.058Z,9.40
2022-11-27T12:20:24.116Z,9.60
2022-11-27T12:22:51.391Z,9.50
2022-11-27T12:25:35.856Z,9.40
2022-11-27T12:28:34.466Z,9.30
2022-11-27T12:31:20.645Z,9.30
2022-11-27T12:34:05.792Z,9.30
2022-11-27T12:36:49.897Z,9.30
2022-11-27T12:39:57.823Z,9.30
2022-11-27T12:42:29.051Z,9.30
2022-11-27T12:45:17.809Z,9.30
2022-11-27T12:47:56.762Z,9.30
2022-11-27T12:50:59.155Z,9.40
2022-11-27T12:53:42.644Z,9.40
2022-11-27T12:56:45.548Z,9.30
2022-11-27T12:59:34.359Z,9.20
2022-11-27T13:02:09.443Z,9.10
2022-11-27T13:04:51.931Z,9.20
2022-11-27T13:07:28.538Z,9.20
2022-11-27T13:10:32.966Z,9.10
2022-11-27T13:13:22.033Z,9.00
2022-11-27T13:15:54.818Z,8.90
2022-11-27T13:18:22.080Z,8.90
2022-11-27T13:20:52.744Z,8.90
2022-11-27T13:23:21.182Z,8.90
2022-11-27T13:25:56.756Z,8.90
2022-11-27T13:28:39.954Z,8.90
2022-11-27T13:31:08.840Z,8.80
2022-11-27T13:33:42.866Z,8.80
2022-11-27T13:36:26.639Z,8.80
2022-11-27T13:39:00.118Z,8.80
2022-11-27T13:41:40.913Z,8.70
2022-11-27T13:44:26.813Z,8.70
2022-11-27T13:47:00.204Z,8.80
2022-11-27T13:49:31.631Z,8.80
2022-11-27T13:52:14.603Z,8.80
2022-11-27T13:54:55.345Z,8.80
2022-11-27T13:57:23.495Z,8.80
2022-11-27T14:00:13.569Z,8.80
2022-11-27T14:02:50.278Z,8.80
2022-11-27T14:05:34.145Z,8.80
2022-11-27T14:08:01.582Z,8.70
2022-11-27T14:10:32.405Z,8.70
2022-11-27T14:13:03.494Z,8.60
2022-11-27T14:15:33.320Z,8.70
2022-11-27T14:18:19.644Z,8.60
2022-11-27T14:20:57.375Z,8.60
2022-11-27T14:23:33.316Z,8.60
2022-11-27T14:26:06.328Z,8.60
2022-11-27T14:28:37.379Z,8.60
2022-11-27T14:31:05.079Z,8.50
2022-11-27T14:33:59.764Z,8.50
2022-11-27T14:36:30.182Z,8.40
2022-11-27T14:39:00.973Z,8.40
2022-11-27T14:41:29.297Z,8.40
2022-11-27T14:44:04.436Z,8.40
2022-11-27T14:46:33.779Z,8.40
2022-11-27T14:49:01.210Z,8.50
2022-11-27T14:51:31.294Z,8.40
2022-11-27T14:54:03.103Z,8.40
2022-11-27T14:56:41.762Z,8.30
2022-11-27T14:59:17.946Z,8.40
2022-11-27T15:01:48.953Z,8.40
2022-11-27T15:04:28.930Z,8.40
2022-11-27T15:06:58.557Z,8.40
2022-11-27T15:09:35.716Z,8.40
2022-11-27T15:12:15.418Z,8.40
2022-11-27T15:14:51.814Z,8.40
2022-11-27T15:17:26.238Z,8.40
2022-11-27T15:19:55.411Z,8.40
2022-11-27T15:22:23.445Z,8.40
2022-11-27T15:25:02.297Z,8.40
2022-11-27T15:27:43.911Z,8.30
2022-11-27T15:30:19.639Z,8.30
2022-11-27T15:32:52.763Z,8.30
2022-11-27T15:35:22.098Z,8.30
2022-11-27T15:37:51.310Z,8.40
2022-11-27T15:40:27.463Z,8.40
2022-11-27T15:42:54.717Z,8.30
2022-11-27T15:45:22.713Z,8.30
2022-11-27T15:47:58.213Z,8.30
2022-11-27T15:50:25.767Z,8.30
2022-11-27T15:52:53.053Z,8.30
2022-11-27T15:55:20.478Z,8.20
2022-11-27T15:57:48.477Z,8.20
2022-11-27T16:00:16.181Z,8.10
2022-11-27T16:02:43.556Z,8.10
2022-11-27T16:05:10.859Z,8.10
2022-11-27T16:07:38.408Z,8.10
2022-11-27T16:10:06.815Z,8.20
2022-11-27T16:12:34.210Z,8.10
2022-11-27T16:15:01.708Z,8.10
2022-11-27T16:17:29.006Z,8.10
2022-11-27T16:19:56.261Z,8.10
2022-11-27T16:22:23.603Z,8.00
2022-11-27T16:24:51.135Z,8.10
2022-11-27T16:27:18.401Z,8.10
2022-11-27T16:29:45.716Z,8.10
2022-11-27T16:32:13.689Z,8.10
2022-11-27T16:34:41.295Z,8.00
2022-11-27T16:37:08.782Z,8.10
2022-11-27T16:39:36.142Z,8.00
2022-11-27T16:42:03.822Z,8.10
2022-11-27T16:44:31.448Z,8.00
2022-11-27T16:46:58.721Z,8.00
2022-11-27T16:49:25.965Z,8.00
2022-11-27T16:51:53.421Z,8.00
2022-11-27T16:54:20.699Z,8.00
2022-11-27T16:56:48.169Z,8.00
2022-11-27T16:59:17.037Z,8.00
2022-11-27T17:01:44.703Z,7.90
2022-11-27T17:04:20.380Z,7.90
2022-11-27T17:06:49.478Z,7.90
2022-11-27T17:09:17.479Z,7.90
2022-11-27T17:11:50.731Z,7.80
2022-11-27T17:14:20.413Z,7.90
2022-11-27T17:16:49.245Z,7.80
2022-11-27T17:19:18.278Z,7.80
2022-11-27T17:21:46.339Z,7.80
2022-11-27T17:24:16.120Z,7.80
2022-11-27T17:26:48.183Z,7.80
2022-11-27T17:29:18.113Z,7.90
2022-11-27T17:31:45.501Z,7.80
2022-11-27T17:34:15.766Z,7.90
2022-11-27T17:36:45.340Z,7.90
2022-11-27T17:39:14.937Z,7.90
2022-11-27T17:41:45.016Z,7.90
2022-11-27T17:44:12.791Z,7.90
2022-11-27T17:46:40.400Z,7.90
2022-11-27T17:49:08.642Z,7.90
2022-11-27T17:51:36.839Z,7.90
2022-11-27T17:54:05.405Z,7.90
2022-11-27T17:56:34.499Z,7.80
2022-11-27T17:59:03.109Z,7.90
2022-11-27T18:01:31.033Z,7.90
2022-11-27T18:04:00.801Z,7.90
2022-11-27T18:06:30.987Z,7.80
2022-11-27T18:09:00.460Z,7.80
2022-11-27T18:11:30.514Z,7.90
2022-11-27T18:14:00.309Z,7.80
2022-11-27T18:16:35.366Z,7.80
2022-11-27T18:19:08.991Z,7.80
2022-11-27T18:21:37.408Z,7.80
2022-11-27T18:27:09.654Z,7.80
2022-11-27T18:29:39.548Z,7.80
2022-11-27T18:32:08.147Z,7.80
2022-11-27T18:34:35.614Z,7.80
2022-11-27T18:37:03.828Z,7.70
2022-11-27T18:39:31.629Z,7.70
2022-11-27T18:41:59.403Z,7.70
2022-11-27T18:44:27.089Z,7.70
2022-11-27T18:46:54.507Z,7.70
2022-11-27T18:49:23.144Z,7.60
2022-11-27T18:51:52.162Z,7.60
2022-11-27T18:54:20.898Z,7.50
2022-11-27T18:56:48.244Z,7.50
2022-11-27T18:59:15.774Z,7.40
2022-11-27T19:01:45.104Z,7.30
2022-11-27T19:04:13.052Z,7.10
2022-11-27T19:06:42.333Z,7.10
2022-11-27T19:09:11.581Z,7.10
2022-11-27T19:11:39.691Z,7.10
2022-11-27T19:14:08.885Z,7.00
2022-11-27T19:16:48.574Z,7.00
2022-11-27T19:22:09.126Z,7.00
2022-11-27T19:24:37.913Z,6.90
2022-11-27T19:27:05.260Z,6.90
2022-11-27T19:29:32.887Z,7.00
2022-11-27T19:32:01.280Z,6.90
2022-11-27T19:34:28.982Z,6.90
2022-11-27T19:36:58.426Z,6.90
2022-11-27T19:39:27.149Z,6.80
2022-11-27T19:41:54.793Z,6.80
2022-11-27T19:44:22.536Z,6.80
2022-11-27T19:46:50.055Z,6.80
2022-11-27T19:49:18.704Z,6.80
2022-11-27T19:51:47.420Z,6.70
2022-11-27T19:54:16.602Z,6.80
2022-11-27T19:56:44.272Z,6.80
2022-11-27T19:59:13.260Z,6.70
2022-11-27T20:01:42.273Z,6.70
2022-11-27T20:04:11.233Z,6.70
2022-11-27T20:06:39.416Z,6.70
2022-11-27T20:09:07.276Z,6.80
2022-11-27T20:11:37.743Z,6.80
2022-11-27T20:14:06.374Z,6.90
2022-11-27T20:16:35.234Z,7.00
2022-11-27T20:19:05.443Z,7.10
2022-11-27T20:21:34.495Z,7.10
2022-11-27T20:24:04.239Z,7.20
2022-11-27T20:26:36.182Z,7.20
2022-11-27T20:29:05.931Z,7.20
2022-11-27T20:31:37.610Z,7.20
2022-11-27T20:34:07.752Z,7.20
2022-11-27T20:36:38.962Z,7.20
2022-11-27T20:39:06.852Z,7.20
2022-11-27T20:41:34.168Z,7.20
2022-11-27T20:44:04.766Z,7.20
2022-11-27T20:46:33.069Z,7.20
2022-11-27T20:49:01.856Z,7.20
2022-11-27T20:51:33.337Z,7.20
2022-11-27T20:54:07.426Z,7.20
2022-11-27T20:56:34.857Z,7.20
2022-11-27T20:59:02.457Z,7.20
2022-11-27T21:01:34.590Z,7.20
2022-11-27T21:04:09.045Z,7.20
2022-11-27T21:06:43.407Z,7.30
2022-11-27T21:09:13.617Z,7.30
2022-11-27T21:11:41.620Z,7.30
2022-11-27T21:14:11.749Z,7.30
2022-11-27T21:16:42.645Z,7.30
2022-11-27T21:19:22.930Z,7.20
2022-11-27T21:21:51.555Z,7.10
2022-11-27T21:24:20.275Z,7.10
2022-11-27T21:26:48.823Z,7.10
2022-11-27T21:29:16.350Z,7.10
2022-11-27T21:31:47.176Z,7.10
2022-11-27T21:34:15.538Z,7.20
2022-11-27T21:36:43.935Z,7.20
2022-11-27T21:39:14.468Z,7.30
2022-11-27T21:41:41.796Z,7.30
2022-11-27T21:44:09.940Z,7.30
2022-11-27T21:46:38.880Z,7.30
2022-11-27T21:49:07.102Z,7.30
2022-11-27T21:51:34.532Z,7.30
2022-11-27T21:54:07.724Z,7.30
2022-11-27T21:56:37.707Z,7.30
2022-11-27T21:59:06.455Z,7.30
2022-11-27T22:01:33.956Z,7.40
2022-11-27T22:04:02.508Z,7.30
2022-11-27T22:06:35.151Z,7.30
2022-11-27T22:09:03.380Z,7.30
2022-11-27T22:11:30.779Z,7.30
2022-11-27T22:14:00.751Z,7.30
2022-11-27T22:16:30.968Z,7.30
2022-11-27T22:19:00.361Z,7.30
2022-11-27T22:21:29.674Z,7.20
2022-11-27T22:23:58.599Z,7.20
2022-11-27T22:26:26.404Z,7.20
2022-11-27T22:28:53.797Z,7.20
2022-11-27T22:31:24.542Z,7.20
2022-11-27T22:33:52.677Z,7.20
2022-11-27T22:36:32.921Z,7.10
2022-11-27T22:39:03.807Z,7.10
2022-11-27T22:41:35.280Z,7.10
2022-11-27T22:44:08.422Z,7.10
2022-11-27T22:46:36.451Z,7.00
2022-11-27T22:49:06.459Z,7.00
2022-11-27T22:51:35.915Z,7.00
2022-11-27T22:54:04.446Z,7.00
2022-11-27T22:56:36.274Z,7.00
2022-11-27T22:59:31.174Z,7.00
2022-11-27T23:01:53.933Z,7.00
2022-11-27T23:04:21.445Z,7.00
2022-11-27T23:06:48.913Z,7.00
2022-11-27T23:09:18.727Z,6.90
2022-11-27T23:11:46.347Z,6.90
2022-11-27T23:14:13.831Z,6.90
2022-11-27T23:16:41.483Z,6.90
2022-11-27T23:19:09.694Z,6.90
2022-11-27T23:21:38.660Z,6.80
2022-11-27T23:24:07.483Z,6.80
2022-11-27T23:26:34.958Z,6.80
2022-11-27T23:29:02.273Z,6.90
2022-11-27T23:31:32.480Z,6.80
2022-11-27T23:34:02.092Z,6.80
2022-11-27T23:36:31.043Z,6.80
2022-11-27T23:39:03.221Z,6.80
2022-11-27T23:41:31.098Z,6.80
2022-11-27T23:43:58.705Z,6.80
2022-11-27T23:46:29.082Z,6.80
2022-11-27T23:48:58.323Z,6.80
2022-11-27T23:51:28.379Z,6.90
2022-11-27T23:53:55.958Z,6.80
2022-11-27T23:56:27.412Z,6.80
2022-11-27T23:58:55.510Z,6.90
